sensor_id;sensor_type;location;lat;lon;timestamp;pressure;altitude;pressure_sealevel;temperature;humidity
6136;BME280;24008;42.664;23.372;2023-02-28T00:00:18;95202.66;;;5.60;100.00
6136;BME280;24008;42.664;23.372;2023-02-28T00:02:45;95198.09;;;5.65;100.00
6136;BME280;24008;42.664;23.372;2023-02-28T00:05:14;95204.19;;;5.63;100.00
6136;BME280;24008;42.664;23.372;2023-02-28T00:07:41;95134.66;;;5.15;100.00
6136;BME280;24008;42.664;23.372;2023-02-28T00:10:12;95192.19;;;5.52;100.00
6136;BME280;24008;42.664;23.372;2023-02-28T00:12:39;95206.19;;;5.58;100.00
6136;BME280;24008;42.664;23.372;2023-02-28T00:15:08;95196.13;;;5.56;100.00
6136;BME280;24008;42.664;23.372;2023-02-28T00:17:36;95150.47;;;5.18;100.00
6136;BME280;24008;42.664;23.372;2023-02-28T00:20:05;95199.50;;;5.57;100.00
6136;BME280;24008;42.664;23.372;2023-02-28T00:22:33;95205.72;;;5.65;100.00
6136;BME280;24008;42.664;23.372;2023-02-28T00:25:00;95132.47;;;5.08;100.00
6136;BME280;24008;42.664;23.372;2023-02-28T00:27:29;95136.06;;;5.06;100.00
6136;BME280;24008;42.664;23.372;2023-02-28T00:29:56;95185.31;;;5.54;100.00
6136;BME280;24008;42.664;23.372;2023-02-28T00:32:22;95185.63;;;5.62;100.00
6136;BME280;24008;42.664;23.372;2023-02-28T00:34:49;95230.56;;;5.73;100.00
6136;BME280;24008;42.664;23.372;2023-02-28T00:37:16;95221.22;;;5.73;100.00
6136;BME280;24008;42.664;23.372;2023-02-28T00:39:43;95222.97;;;5.73;100.00
6136;BME280;24008;42.664;23.372;2023-02-28T00:42:10;95229.03;;;5.70;100.00
6136;BME280;24008;42.664;23.372;2023-02-28T00:44:38;95187.84;;;5.54;100.00
6136;BME280;24008;42.664;23.372;2023-02-28T00:47:05;95146.13;;;5.33;100.00
6136;BME280;24008;42.664;23.372;2023-02-28T00:49:32;95139.31;;;5.21;100.00
6136;BME280;24008;42.664;23.372;2023-02-28T00:51:59;95199.41;;;5.58;100.00
6136;BME280;24008;42.664;23.372;2023-02-28T00:54:26;95195.47;;;5.54;100.00
6136;BME280;24008;42.664;23.372;2023-02-28T00:56:53;95194.94;;;5.49;100.00
6136;BME280;24008;42.664;23.372;2023-02-28T00:59:19;95204.44;;;5.46;100.00
6136;BME280;24008;42.664;23.372;2023-02-28T01:01:48;95207.28;;;5.41;100.00
6136;BME280;24008;42.664;23.372;2023-02-28T01:04:15;95223.50;;;5.38;100.00
6136;BME280;24008;42.664;23.372;2023-02-28T01:06:42;95216.19;;;5.34;100.00
6136;BME280;24008;42.664;23.372;2023-02-28T01:09:09;95151.00;;;4.96;100.00
6136;BME280;24008;42.664;23.372;2023-02-28T01:11:37;95209.28;;;5.36;100.00
6136;BME280;24008;42.664;23.372;2023-02-28T01:14:06;95205.31;;;5.32;100.00
6136;BME280;24008;42.664;23.372;2023-02-28T01:16:32;95210.19;;;5.35;100.00
6136;BME280;24008;42.664;23.372;2023-02-28T01:19:01;95189.28;;;5.19;100.00
6136;BME280;24008;42.664;23.372;2023-02-28T01:21:27;95177.31;;;5.21;100.00
6136;BME280;24008;42.664;23.372;2023-02-28T01:23:56;95185.94;;;5.18;100.00
6136;BME280;24008;42.664;23.372;2023-02-28T01:26:23;95200.56;;;5.27;100.00
6136;BME280;24008;42.664;23.372;2023-02-28T01:28:51;95180.88;;;5.18;100.00
6136;BME280;24008;42.664;23.372;2023-02-28T01:31:19;95134.56;;;4.89;100.00
6136;BME280;24008;42.664;23.372;2023-02-28T01:33:47;95199.56;;;5.30;100.00
6136;BME280;24008;42.664;23.372;2023-02-28T01:36:18;95126.06;;;4.90;100.00
6136;BME280;24008;42.664;23.372;2023-02-28T01:38:46;95197.22;;;5.27;100.00
6136;BME280;24008;42.664;23.372;2023-02-28T01:41:16;95198.41;;;5.21;100.00
6136;BME280;24008;42.664;23.372;2023-02-28T01:43:59;95149.50;;;4.94;100.00
6136;BME280;24008;42.664;23.372;2023-02-28T01:46:28;95201.75;;;5.22;100.00
6136;BME280;24008;42.664;23.372;2023-02-28T01:49:01;95201.97;;;5.19;100.00
6136;BME280;24008;42.664;23.372;2023-02-28T01:51:33;95197.91;;;5.16;100.00
6136;BME280;24008;42.664;23.372;2023-02-28T01:54:03;95117.28;;;4.69;100.00
6136;BME280;24008;42.664;23.372;2023-02-28T01:56:34;95205.31;;;5.19;100.00
6136;BME280;24008;42.664;23.372;2023-02-28T01:59:03;95213.91;;;5.17;100.00
6136;BME280;24008;42.664;23.372;2023-02-28T02:01:30;95172.38;;;4.92;100.00
6136;BME280;24008;42.664;23.372;2023-02-28T02:03:59;95132.47;;;4.69;100.00
6136;BME280;24008;42.664;23.372;2023-02-28T02:06:31;95206.34;;;5.02;100.00
6136;BME280;24008;42.664;23.372;2023-02-28T02:09:00;95209.97;;;4.98;100.00
6136;BME280;24008;42.664;23.372;2023-02-28T02:11:28;95182.97;;;4.85;100.00
6136;BME280;24008;42.664;23.372;2023-02-28T02:14:07;95201.28;;;5.02;100.00
6136;BME280;24008;42.664;23.372;2023-02-28T02:16:45;95199.75;;;5.00;100.00
6136;BME280;24008;42.664;23.372;2023-02-28T02:19:34;95188.91;;;4.98;100.00
6136;BME280;24008;42.664;23.372;2023-02-28T02:25:13;95175.28;;;4.86;100.00
6136;BME280;24008;42.664;23.372;2023-02-28T02:27:57;95177.09;;;4.84;100.00
6136;BME280;24008;42.664;23.372;2023-02-28T02:36:31;95194.88;;;4.97;100.00
6136;BME280;24008;42.664;23.372;2023-02-28T02:39:04;95178.34;;;4.91;100.00
6136;BME280;24008;42.664;23.372;2023-02-28T02:41:36;95196.72;;;5.07;100.00
6136;BME280;24008;42.664;23.372;2023-02-28T02:44:11;95214.91;;;5.14;100.00
6136;BME280;24008;42.664;23.372;2023-02-28T02:46:42;95207.72;;;5.21;100.00
6136;BME280;24008;42.664;23.372;2023-02-28T02:49:15;95207.34;;;5.27;100.00
6136;BME280;24008;42.664;23.372;2023-02-28T02:51:45;95192.81;;;5.16;100.00
6136;BME280;24008;42.664;23.372;2023-02-28T02:54:17;95205.63;;;5.27;100.00
6136;BME280;24008;42.664;23.372;2023-02-28T02:56:46;95190.38;;;5.15;100.00
6136;BME280;24008;42.664;23.372;2023-02-28T02:59:17;95062.78;;;4.37;100.00
6136;BME280;24008;42.664;23.372;2023-02-28T03:01:49;95217.66;;;5.24;100.00
6136;BME280;24008;42.664;23.372;2023-02-28T03:04:19;95192.59;;;5.06;100.00
6136;BME280;24008;42.664;23.372;2023-02-28T03:06:50;95210.84;;;5.12;100.00
6136;BME280;24008;42.664;23.372;2023-02-28T03:09:20;95233.59;;;5.26;100.00
6136;BME280;24008;42.664;23.372;2023-02-28T03:11:47;95242.81;;;5.27;100.00
6136;BME280;24008;42.664;23.372;2023-02-28T03:14:35;95243.63;;;5.27;100.00
6136;BME280;24008;42.664;23.372;2023-02-28T03:17:27;95227.50;;;5.16;100.00
6136;BME280;24008;42.664;23.372;2023-02-28T03:20:04;95252.97;;;5.27;100.00
6136;BME280;24008;42.664;23.372;2023-02-28T03:22:52;95231.91;;;5.12;100.00
6136;BME280;24008;42.664;23.372;2023-02-28T03:25:30;95233.13;;;5.06;100.00
6136;BME280;24008;42.664;23.372;2023-02-28T03:28:27;95203.63;;;4.79;100.00
6136;BME280;24008;42.664;23.372;2023-02-28T03:31:00;95257.44;;;5.09;100.00
6136;BME280;24008;42.664;23.372;2023-02-28T03:33:35;95206.81;;;4.68;100.00
6136;BME280;24008;42.664;23.372;2023-02-28T03:36:08;95225.31;;;4.83;100.00
6136;BME280;24008;42.664;23.372;2023-02-28T03:38:43;95077.44;;;3.90;100.00
6136;BME280;24008;42.664;23.372;2023-02-28T03:41:14;95263.72;;;5.03;100.00
6136;BME280;24008;42.664;23.372;2023-02-28T03:43:48;95201.75;;;4.68;100.00
6136;BME280;24008;42.664;23.372;2023-02-28T03:46:19;95169.44;;;4.45;100.00
6136;BME280;24008;42.664;23.372;2023-02-28T03:48:51;95236.97;;;4.85;100.00
6136;BME280;24008;42.664;23.372;2023-02-28T03:51:22;95271.56;;;5.13;100.00
6136;BME280;24008;42.664;23.372;2023-02-28T03:53:54;95267.22;;;5.15;100.00
6136;BME280;24008;42.664;23.372;2023-02-28T03:56:27;95274.72;;;5.17;100.00
6136;BME280;24008;42.664;23.372;2023-02-28T03:59:02;95247.63;;;5.04;100.00
6136;BME280;24008;42.664;23.372;2023-02-28T04:01:35;95279.22;;;5.26;100.00
6136;BME280;24008;42.664;23.372;2023-02-28T04:04:06;95272.34;;;5.28;100.00
6136;BME280;24008;42.664;23.372;2023-02-28T04:06:34;95265.09;;;5.22;100.00
6136;BME280;24008;42.664;23.372;2023-02-28T04:09:04;95256.44;;;5.12;100.00
6136;BME280;24008;42.664;23.372;2023-02-28T04:11:33;95251.78;;;5.05;100.00
6136;BME280;24008;42.664;23.372;2023-02-28T04:14:01;95240.38;;;4.98;100.00
6136;BME280;24008;42.664;23.372;2023-02-28T04:16:28;95228.81;;;4.94;100.00
6136;BME280;24008;42.664;23.372;2023-02-28T04:18:55;95271.28;;;5.18;100.00
6136;BME280;24008;42.664;23.372;2023-02-28T04:21:27;95272.19;;;5.17;100.00
6136;BME280;24008;42.664;23.372;2023-02-28T04:23:54;95249.34;;;5.04;100.00
6136;BME280;24008;42.664;23.372;2023-02-28T04:26:22;95274.50;;;5.20;100.00
6136;BME280;24008;42.664;23.372;2023-02-28T04:28:49;95211.03;;;4.82;100.00
6136;BME280;24008;42.664;23.372;2023-02-28T04:31:16;95259.53;;;5.17;100.00
6136;BME280;24008;42.664;23.372;2023-02-28T04:33:42;95271.28;;;5.18;100.00
6136;BME280;24008;42.664;23.372;2023-02-28T04:36:09;95270.03;;;5.11;100.00
6136;BME280;24008;42.664;23.372;2023-02-28T04:38:38;95258.59;;;4.91;100.00
6136;BME280;24008;42.664;23.372;2023-02-28T04:41:05;95254.78;;;4.84;100.00
6136;BME280;24008;42.664;23.372;2023-02-28T04:43:33;95250.00;;;4.79;100.00
6136;BME280;24008;42.664;23.372;2023-02-28T04:46:02;95291.78;;;4.86;100.00
6136;BME280;24008;42.664;23.372;2023-02-28T04:48:31;95211.91;;;4.25;100.00
6136;BME280;24008;42.664;23.372;2023-02-28T04:51:00;95299.69;;;4.82;100.00
6136;BME280;24008;42.664;23.372;2023-02-28T04:53:27;95298.78;;;4.83;100.00
6136;BME280;24008;42.664;23.372;2023-02-28T04:55:54;95267.94;;;4.62;100.00
6136;BME280;24008;42.664;23.372;2023-02-28T04:58:21;95205.13;;;4.26;100.00
6136;BME280;24008;42.664;23.372;2023-02-28T05:00:50;95300.66;;;4.79;100.00
6136;BME280;24008;42.664;23.372;2023-02-28T05:03:17;95285.31;;;4.68;100.00
6136;BME280;24008;42.664;23.372;2023-02-28T05:05:43;94957.22;;;2.59;100.00
6136;BME280;24008;42.664;23.372;2023-02-28T05:08:10;95288.66;;;4.68;100.00
6136;BME280;24008;42.664;23.372;2023-02-28T05:10:37;95277.63;;;4.55;100.00
6136;BME280;24008;42.664;23.372;2023-02-28T05:13:04;95242.28;;;4.40;100.00
6136;BME280;24008;42.664;23.372;2023-02-28T05:15:30;95270.56;;;4.60;100.00
6136;BME280;24008;42.664;23.372;2023-02-28T05:17:58;95296.31;;;4.81;100.00
6136;BME280;24008;42.664;23.372;2023-02-28T05:20:25;95185.63;;;3.99;100.00
6136;BME280;24008;42.664;23.372;2023-02-28T05:22:52;95282.22;;;4.77;100.00
6136;BME280;24008;42.664;23.372;2023-02-28T05:25:21;95285.47;;;4.79;100.00
6136;BME280;24008;42.664;23.372;2023-02-28T05:27:48;95204.16;;;4.28;100.00
6136;BME280;24008;42.664;23.372;2023-02-28T05:30:15;95306.63;;;4.92;100.00
6136;BME280;24008;42.664;23.372;2023-02-28T05:32:42;95286.47;;;4.77;100.00
6136;BME280;24008;42.664;23.372;2023-02-28T05:35:11;95279.50;;;4.66;100.00
6136;BME280;24008;42.664;23.372;2023-02-28T05:37:38;95317.56;;;4.93;100.00
6136;BME280;24008;42.664;23.372;2023-02-28T05:40:06;95261.06;;;4.64;100.00
6136;BME280;24008;42.664;23.372;2023-02-28T05:42:35;95292.91;;;4.82;100.00
6136;BME280;24008;42.664;23.372;2023-02-28T05:45:02;95308.25;;;4.93;100.00
6136;BME280;24008;42.664;23.372;2023-02-28T05:47:29;95257.19;;;4.58;100.00
6136;BME280;24008;42.664;23.372;2023-02-28T05:49:56;95315.47;;;4.99;100.00
6136;BME280;24008;42.664;23.372;2023-02-28T05:52:25;95334.47;;;5.06;100.00
6136;BME280;24008;42.664;23.372;2023-02-28T05:54:51;95340.97;;;5.11;100.00
6136;BME280;24008;42.664;23.372;2023-02-28T05:57:18;95324.69;;;5.00;100.00
6136;BME280;24008;42.664;23.372;2023-02-28T05:59:45;95338.97;;;5.16;100.00
6136;BME280;24008;42.664;23.372;2023-02-28T06:02:13;95221.13;;;4.41;100.00
6136;BME280;24008;42.664;23.372;2023-02-28T06:04:41;95340.78;;;5.14;100.00
6136;BME280;24008;42.664;23.372;2023-02-28T06:07:08;95307.31;;;5.08;100.00
6136;BME280;24008;42.664;23.372;2023-02-28T06:09:37;95313.91;;;5.11;100.00
6136;BME280;24008;42.664;23.372;2023-02-28T06:12:05;95313.81;;;5.13;100.00
6136;BME280;24008;42.664;23.372;2023-02-28T06:14:35;95326.16;;;5.31;100.00
6136;BME280;24008;42.664;23.372;2023-02-28T06:17:03;95310.81;;;5.20;100.00
6136;BME280;24008;42.664;23.372;2023-02-28T06:19:29;95299.66;;;5.23;100.00
6136;BME280;24008;42.664;23.372;2023-02-28T06:21:56;95330.59;;;5.42;100.00
6136;BME280;24008;42.664;23.372;2023-02-28T06:24:25;95310.00;;;5.20;100.00
6136;BME280;24008;42.664;23.372;2023-02-28T06:26:54;95314.31;;;5.32;100.00
6136;BME280;24008;42.664;23.372;2023-02-28T06:29:21;95332.72;;;5.48;100.00
6136;BME280;24008;42.664;23.372;2023-02-28T06:31:48;95235.53;;;4.81;100.00
6136;BME280;24008;42.664;23.372;2023-02-28T06:34:15;95349.56;;;5.49;100.00
6136;BME280;24008;42.664;23.372;2023-02-28T06:36:43;95345.31;;;5.50;100.00
6136;BME280;24008;42.664;23.372;2023-02-28T06:39:10;95344.66;;;5.60;100.00
6136;BME280;24008;42.664;23.372;2023-02-28T06:41:36;95321.69;;;5.49;100.00
6136;BME280;24008;42.664;23.372;2023-02-28T06:44:11;95349.84;;;5.71;100.00
6136;BME280;24008;42.664;23.372;2023-02-28T06:46:39;95350.75;;;5.70;100.00
6136;BME280;24008;42.664;23.372;2023-02-28T06:49:06;95249.75;;;5.11;100.00
6136;BME280;24008;42.664;23.372;2023-02-28T06:51:34;95241.44;;;5.08;100.00
6136;BME280;24008;42.664;23.372;2023-02-28T06:54:02;95360.78;;;5.86;100.00
6136;BME280;24008;42.664;23.372;2023-02-28T06:56:29;95353.25;;;5.85;100.00
6136;BME280;24008;42.664;23.372;2023-02-28T06:58:55;95356.34;;;5.90;100.00
6136;BME280;24008;42.664;23.372;2023-02-28T07:01:24;95345.41;;;5.75;100.00
6136;BME280;24008;42.664;23.372;2023-02-28T07:03:51;95386.81;;;5.90;100.00
6136;BME280;24008;42.664;23.372;2023-02-28T07:06:18;95355.78;;;5.85;100.00
6136;BME280;24008;42.664;23.372;2023-02-28T07:08:45;95360.69;;;5.88;100.00
6136;BME280;24008;42.664;23.372;2023-02-28T07:11:12;95327.63;;;5.62;100.00
6136;BME280;24008;42.664;23.372;2023-02-28T07:13:39;95338.03;;;5.58;100.00
6136;BME280;24008;42.664;23.372;2023-02-28T07:16:10;95356.28;;;5.77;100.00
6136;BME280;24008;42.664;23.372;2023-02-28T07:18:39;95301.81;;;5.56;100.00
6136;BME280;24008;42.664;23.372;2023-02-28T07:21:08;95351.78;;;5.95;100.00
6136;BME280;24008;42.664;23.372;2023-02-28T07:23:35;95351.59;;;5.98;100.00
6136;BME280;24008;42.664;23.372;2023-02-28T07:26:03;95363.38;;;5.99;100.00
6136;BME280;24008;42.664;23.372;2023-02-28T07:28:30;95352.81;;;6.05;100.00
6136;BME280;24008;42.664;23.372;2023-02-28T07:31:02;95301.66;;;5.71;100.00
6136;BME280;24008;42.664;23.372;2023-02-28T07:33:29;95352.34;;;6.12;100.00
6136;BME280;24008;42.664;23.372;2023-02-28T07:36:01;95351.47;;;6.26;100.00
6136;BME280;24008;42.664;23.372;2023-02-28T07:38:28;95359.78;;;6.41;100.00
6136;BME280;24008;42.664;23.372;2023-02-28T07:40:55;95294.81;;;6.26;100.00
6136;BME280;24008;42.664;23.372;2023-02-28T07:43:21;95356.88;;;6.85;100.00
6136;BME280;24008;42.664;23.372;2023-02-28T07:45:48;95359.28;;;6.99;100.00
6136;BME280;24008;42.664;23.372;2023-02-28T07:48:15;95261.56;;;6.54;100.00
6136;BME280;24008;42.664;23.372;2023-02-28T07:50:42;95339.75;;;7.12;100.00
6136;BME280;24008;42.664;23.372;2023-02-28T07:53:10;95350.28;;;7.32;100.00
6136;BME280;24008;42.664;23.372;2023-02-28T07:55:37;95351.06;;;7.45;100.00
6136;BME280;24008;42.664;23.372;2023-02-28T07:58:18;95348.78;;;7.53;100.00
6136;BME280;24008;42.664;23.372;2023-02-28T08:00:45;95322.38;;;7.43;100.00
6136;BME280;24008;42.664;23.372;2023-02-28T08:03:13;95315.00;;;7.51;100.00
6136;BME280;24008;42.664;23.372;2023-02-28T08:05:39;95347.88;;;7.78;100.00
6136;BME280;24008;42.664;23.372;2023-02-28T08:08:07;95280.75;;;7.44;100.00
6136;BME280;24008;42.664;23.372;2023-02-28T08:10:36;95346.00;;;8.04;100.00
6136;BME280;24008;42.664;23.372;2023-02-28T08:13:03;95344.22;;;8.17;100.00
6136;BME280;24008;42.664;23.372;2023-02-28T08:15:30;95358.81;;;8.26;100.00
6136;BME280;24008;42.664;23.372;2023-02-28T08:17:57;95319.34;;;8.20;100.00
6136;BME280;24008;42.664;23.372;2023-02-28T08:20:24;95090.28;;;6.82;100.00
6136;BME280;24008;42.664;23.372;2023-02-28T08:22:51;95344.00;;;8.66;100.00
6136;BME280;24008;42.664;23.372;2023-02-28T08:25:18;95343.31;;;8.86;100.00
6136;BME280;24008;42.664;23.372;2023-02-28T08:27:46;95351.31;;;9.04;100.00
6136;BME280;24008;42.664;23.372;2023-02-28T08:30:14;95320.47;;;8.96;100.00
6136;BME280;24008;42.664;23.372;2023-02-28T08:32:41;95347.94;;;9.37;100.00
6136;BME280;24008;42.664;23.372;2023-02-28T08:35:09;95350.00;;;9.43;100.00
6136;BME280;24008;42.664;23.372;2023-02-28T08:37:35;95350.13;;;9.53;100.00
6136;BME280;24008;42.664;23.372;2023-02-28T08:40:03;95351.44;;;9.68;100.00
6136;BME280;24008;42.664;23.372;2023-02-28T08:42:30;95267.56;;;9.31;99.05
6136;BME280;24008;42.664;23.372;2023-02-28T08:44:59;95355.91;;;9.98;98.54
6136;BME280;24008;42.664;23.372;2023-02-28T08:47:26;95352.75;;;9.94;95.52
6136;BME280;24008;42.664;23.372;2023-02-28T08:49:53;95355.44;;;9.93;96.33
6136;BME280;24008;42.664;23.372;2023-02-28T08:52:20;95328.03;;;9.95;96.50
6136;BME280;24008;42.664;23.372;2023-02-28T08:54:49;95311.16;;;9.83;93.79
6136;BME280;24008;42.664;23.372;2023-02-28T08:57:16;95370.66;;;10.89;91.56
6136;BME280;24008;42.664;23.372;2023-02-28T08:59:43;95370.91;;;11.46;85.24
6136;BME280;24008;42.664;23.372;2023-02-28T09:02:12;95214.34;;;10.42;83.62
6136;BME280;24008;42.664;23.372;2023-02-28T09:04:39;95359.91;;;11.25;84.50
6136;BME280;24008;42.664;23.372;2023-02-28T09:07:07;95349.69;;;10.95;86.50
6136;BME280;24008;42.664;23.372;2023-02-28T09:09:34;95370.81;;;10.66;89.18
6136;BME280;24008;42.664;23.372;2023-02-28T09:12:01;95360.41;;;10.37;89.93
6136;BME280;24008;42.664;23.372;2023-02-28T09:14:27;95248.94;;;9.63;91.84
6136;BME280;24008;42.664;23.372;2023-02-28T09:16:54;95349.03;;;10.30;91.37
6136;BME280;24008;42.664;23.372;2023-02-28T09:19:23;95349.69;;;10.95;90.81
6136;BME280;24008;42.664;23.372;2023-02-28T09:21:50;95328.09;;;11.68;84.55
6136;BME280;24008;42.664;23.372;2023-02-28T09:24:17;95357.53;;;12.02;81.19
6136;BME280;24008;42.664;23.372;2023-02-28T09:26:46;95347.66;;;11.69;82.41
6136;BME280;24008;42.664;23.372;2023-02-28T09:29:13;95347.19;;;11.44;83.85
6136;BME280;24008;42.664;23.372;2023-02-28T09:31:42;95348.63;;;11.37;83.47
6136;BME280;24008;42.664;23.372;2023-02-28T09:34:09;95343.75;;;11.84;81.81
6136;BME280;24008;42.664;23.372;2023-02-28T09:36:37;95342.47;;;12.18;78.58
6136;BME280;24008;42.664;23.372;2023-02-28T09:39:04;95365.53;;;12.18;77.73
6136;BME280;24008;42.664;23.372;2023-02-28T09:41:37;95361.78;;;11.73;80.80
6136;BME280;24008;42.664;23.372;2023-02-28T09:44:18;95370.94;;;11.56;81.14
6136;BME280;24008;42.664;23.372;2023-02-28T09:46:48;95322.09;;;11.38;81.39
6136;BME280;24008;42.664;23.372;2023-02-28T09:49:18;95345.69;;;11.82;80.77
6136;BME280;24008;42.664;23.372;2023-02-28T09:51:51;95318.25;;;11.73;79.84
6136;BME280;24008;42.664;23.372;2023-02-28T09:54:22;95348.06;;;11.83;79.48
6136;BME280;24008;42.664;23.372;2023-02-28T09:56:51;95348.75;;;11.76;79.15
6136;BME280;24008;42.664;23.372;2023-02-28T09:59:31;95345.84;;;11.60;81.15
6136;BME280;24008;42.664;23.372;2023-02-28T10:02:08;95321.63;;;11.64;80.76
6136;BME280;24008;42.664;23.372;2023-02-28T10:04:54;95340.28;;;11.95;78.92
6136;BME280;24008;42.664;23.372;2023-02-28T10:07:37;95338.94;;;11.90;78.71
6136;BME280;24008;42.664;23.372;2023-02-28T10:10:17;95336.88;;;11.84;78.30
6136;BME280;24008;42.664;23.372;2023-02-28T10:12:47;95343.13;;;12.01;79.09
6136;BME280;24008;42.664;23.372;2023-02-28T10:15:15;95343.00;;;12.32;76.22
6136;BME280;24008;42.664;23.372;2023-02-28T10:17:47;95338.66;;;12.22;76.27
6136;BME280;24008;42.664;23.372;2023-02-28T10:20:19;95334.09;;;12.16;75.63
6136;BME280;24008;42.664;23.372;2023-02-28T10:22:53;95309.56;;;11.95;75.39
6136;BME280;24008;42.664;23.372;2023-02-28T10:25:25;95324.59;;;12.46;75.06
6136;BME280;24008;42.664;23.372;2023-02-28T10:27:53;95267.66;;;12.52;73.12
6136;BME280;24008;42.664;23.372;2023-02-28T10:30:21;95214.97;;;12.67;71.04
6136;BME280;24008;42.664;23.372;2023-02-28T10:32:50;95311.44;;;13.69;68.64
6136;BME280;24008;42.664;23.372;2023-02-28T10:35:20;95312.97;;;13.80;67.44
6136;BME280;24008;42.664;23.372;2023-02-28T10:37:49;95222.28;;;13.17;67.29
6136;BME280;24008;42.664;23.372;2023-02-28T10:40:31;95308.44;;;14.10;65.60
6136;BME280;24008;42.664;23.372;2023-02-28T10:43:00;95307.00;;;14.33;63.43
6136;BME280;24008;42.664;23.372;2023-02-28T10:45:28;95296.50;;;14.26;65.17
6136;BME280;24008;42.664;23.372;2023-02-28T10:47:58;95290.78;;;14.15;65.35
6136;BME280;24008;42.664;23.372;2023-02-28T10:50:33;95299.25;;;13.72;66.05
6136;BME280;24008;42.664;23.372;2023-02-28T10:53:13;95285.69;;;13.34;68.32
6136;BME280;24008;42.664;23.372;2023-02-28T10:55:43;95285.53;;;13.63;67.17
6136;BME280;24008;42.664;23.372;2023-02-28T10:58:21;95240.97;;;13.54;66.47
6136;BME280;24008;42.664;23.372;2023-02-28T11:00:49;95228.66;;;13.40;66.36
6136;BME280;24008;42.664;23.372;2023-02-28T11:03:25;95187.78;;;12.74;68.31
6136;BME280;24008;42.664;23.372;2023-02-28T11:05:52;95268.66;;;13.15;67.57
6136;BME280;24008;42.664;23.372;2023-02-28T11:08:19;95270.72;;;13.02;68.20
6136;BME280;24008;42.664;23.372;2023-02-28T11:10:53;95230.41;;;12.48;69.76
6136;BME280;24008;42.664;23.372;2023-02-28T11:13:26;95270.78;;;12.36;71.21
6136;BME280;24008;42.664;23.372;2023-02-28T11:15:55;95268.78;;;12.30;72.41
6136;BME280;24008;42.664;23.372;2023-02-28T11:18:26;95217.84;;;11.98;72.11
6136;BME280;24008;42.664;23.372;2023-02-28T11:20:57;95261.25;;;12.00;73.57
6136;BME280;24008;42.664;23.372;2023-02-28T11:23:27;95266.66;;;11.97;74.11
6136;BME280;24008;42.664;23.372;2023-02-28T11:25:59;95263.66;;;11.72;74.50
6136;BME280;24008;42.664;23.372;2023-02-28T11:28:29;95228.63;;;11.44;74.50
6136;BME280;24008;42.664;23.372;2023-02-28T11:31:04;95262.03;;;11.62;75.23
6136;BME280;24008;42.664;23.372;2023-02-28T11:33:37;95262.72;;;11.44;76.03
6136;BME280;24008;42.664;23.372;2023-02-28T11:36:11;95271.47;;;11.42;77.34
6136;BME280;24008;42.664;23.372;2023-02-28T11:38:38;95250.06;;;11.52;77.17
6136;BME280;24008;42.664;23.372;2023-02-28T11:41:32;95259.63;;;11.60;77.16
6136;BME280;24008;42.664;23.372;2023-02-28T11:44:27;95175.22;;;10.91;78.64
6136;BME280;24008;42.664;23.372;2023-02-28T11:46:58;95254.22;;;11.34;77.97
6136;BME280;24008;42.664;23.372;2023-02-28T11:49:35;95227.00;;;11.33;79.24
6136;BME280;24008;42.664;23.372;2023-02-28T11:52:13;95238.63;;;11.47;77.79
6136;BME280;24008;42.664;23.372;2023-02-28T11:54:59;95149.94;;;10.98;77.89
6136;BME280;24008;42.664;23.372;2023-02-28T11:57:37;95180.34;;;11.01;77.47
6136;BME280;24008;42.664;23.372;2023-02-28T12:00:23;95229.00;;;11.30;77.35
6136;BME280;24008;42.664;23.372;2023-02-28T12:03:01;95051.38;;;10.15;77.70
6136;BME280;24008;42.664;23.372;2023-02-28T12:05:34;95242.63;;;11.40;77.49
6136;BME280;24008;42.664;23.372;2023-02-28T12:08:18;95197.88;;;10.96;77.93
6136;BME280;24008;42.664;23.372;2023-02-28T12:10:57;95240.19;;;11.38;78.54
6136;BME280;24008;42.664;23.372;2023-02-28T12:13:38;95259.06;;;11.37;77.05
6136;BME280;24008;42.664;23.372;2023-02-28T12:19:19;95248.81;;;11.28;78.01
6136;BME280;24008;42.664;23.372;2023-02-28T12:22:12;95199.50;;;11.06;77.96
6136;BME280;24008;42.664;23.372;2023-02-28T12:27:47;95254.06;;;11.26;78.24
6136;BME280;24008;42.664;23.372;2023-02-28T12:30:19;95241.00;;;11.29;77.71
6136;BME280;24008;42.664;23.372;2023-02-28T12:32:50;95250.44;;;11.38;77.53
6136;BME280;24008;42.664;23.372;2023-02-28T12:35:22;95204.50;;;11.27;76.85
6136;BME280;24008;42.664;23.372;2023-02-28T12:37:56;95178.78;;;11.09;77.40
6136;BME280;24008;42.664;23.372;2023-02-28T12:40:27;95238.75;;;11.45;77.21
6136;BME280;24008;42.664;23.372;2023-02-28T12:42:58;95173.09;;;11.06;77.16
6136;BME280;24008;42.664;23.372;2023-02-28T12:45:34;95225.94;;;11.65;76.48
6136;BME280;24008;42.664;23.372;2023-02-28T12:48:08;95227.00;;;11.72;73.57
6136;BME280;24008;42.664;23.372;2023-02-28T12:50:39;95228.38;;;11.76;72.98
6136;BME280;24008;42.664;23.372;2023-02-28T12:53:09;95223.63;;;11.62;73.60
6136;BME280;24008;42.664;23.372;2023-02-28T12:55:42;95220.81;;;11.55;73.75
6136;BME280;24008;42.664;23.372;2023-02-28T12:58:15;95215.84;;;11.53;74.46
6136;BME280;24008;42.664;23.372;2023-02-28T13:01:03;95215.69;;;11.65;73.59
6136;BME280;24008;42.664;23.372;2023-02-28T13:03:49;95216.25;;;11.68;74.02
6136;BME280;24008;42.664;23.372;2023-02-28T13:06:34;95208.00;;;11.65;74.28
6136;BME280;24008;42.664;23.372;2023-02-28T13:09:09;95218.81;;;11.87;73.92
6136;BME280;24008;42.664;23.372;2023-02-28T13:11:44;95091.78;;;11.09;72.54
6136;BME280;24008;42.664;23.372;2023-02-28T13:14:23;95201.94;;;11.66;72.65
6136;BME280;24008;42.664;23.372;2023-02-28T13:16:58;95217.44;;;11.54;74.60
6136;BME280;24008;42.664;23.372;2023-02-28T13:19:27;95187.41;;;11.37;75.11
6136;BME280;24008;42.664;23.372;2023-02-28T13:21:56;95211.78;;;11.61;74.79
6136;BME280;24008;42.664;23.372;2023-02-28T13:24:47;95078.06;;;10.81;74.16
6136;BME280;24008;42.664;23.372;2023-02-28T13:27:24;95175.28;;;11.30;74.26
6136;BME280;24008;42.664;23.372;2023-02-28T13:29:58;95217.03;;;11.49;73.58
6136;BME280;24008;42.664;23.372;2023-02-28T13:32:32;95209.50;;;11.38;73.47